Time;durP1;ratioP1;P1;durP2;ratioP2;P2;SDS_P1;SDS_P2;PMS_P1;PMS_P2;Temp;Humidity;BMP_temperature;BMP_pressure;BME280_temperature;BME280_humidity;BME280_pressure;Samples;Min_cycle;Max_cycle;Signal;HPM_P1;HPM_P2
2022/12/18 00:02:15;;;;;;;17.25;8.27;;;0.30;56.10;;;-2.03;61.33;102890.25;12270638;19;20014;-83
2022/12/18 00:06:17;;;;;;;16.63;7.88;;;0.00;55.90;;;-2.28;61.41;102863.88;12273936;19;20443;-83
2022/12/18 00:10:19;;;;;;;15.57;7.30;;;0.00;55.90;;;-2.05;61.65;102905.59;12270044;19;20011;-83
2022/12/18 00:14:21;;;;;;;15.52;7.32;;;-0.10;56.00;;;-1.74;61.60;102956.88;12272465;19;20019;-82
2022/12/18 00:18:23;;;;;;;14.63;8.30;;;-0.10;56.10;;;-2.05;61.61;102915.81;12267838;19;20010;-82
2022/12/18 00:22:25;;;;;;;16.42;8.45;;;0.30;56.30;;;-1.73;61.59;102979.09;12268210;19;20017;-82
2022/12/18 00:26:33;;;;;;;22.67;9.98;;;-0.10;56.10;;;-1.89;61.60;102955.59;12269675;19;20026;-83
2022/12/18 00:30:36;;;;;;;23.58;10.32;;;-0.10;56.00;;;-1.94;61.36;102934.09;12271484;19;20540;-83
2022/12/18 00:34:38;;;;;;;15.90;8.23;;;0.00;55.90;;;-1.94;61.54;102952.00;12273854;19;20030;-83
2022/12/18 00:38:40;;;;;;;18.95;8.52;;;-0.20;55.90;;;-1.94;61.60;102957.13;12275037;19;20027;-83
2022/12/18 00:42:57;;;;;;;15.10;7.22;;;0.00;56.00;;;-2.06;61.43;102931.13;12274416;19;20007;-83
2022/12/18 00:46:59;;;;;;;16.67;7.97;;;0.00;56.00;;;-2.07;61.56;102943.06;12276479;19;20022;-83
2022/12/18 00:51:01;;;;;;;18.95;9.40;;;-0.30;56.30;;;-2.00;61.58;102956.91;12272222;19;20042;-83
2022/12/18 00:55:04;;;;;;;15.63;8.25;;;-0.30;56.00;;;-2.06;61.42;102951.59;12274390;19;20130;-82
2022/12/18 00:59:06;;;;;;;16.85;7.70;;;-0.30;56.10;;;-2.01;61.67;102939.81;12267379;19;20010;-83
2022/12/18 01:03:12;;;;;;;14.77;7.00;;;-0.40;56.10;;;-2.06;61.68;102928.56;12269221;19;20025;-83
2022/12/18 01:07:14;;;;;;;14.73;8.02;;;0.00;56.30;;;-1.94;61.54;102946.03;12269260;19;20014;-83
2022/12/18 01:11:19;;;;;;;15.25;8.38;;;-0.30;56.20;;;-2.01;61.35;102938.13;12271644;19;20521;-83
2022/12/18 01:15:21;;;;;;;11.25;6.18;;;-0.30;56.10;;;-2.06;61.53;102936.25;12270286;19;20010;-82
2022/12/18 01:19:23;;;;;;;14.18;6.63;;;-0.10;56.20;;;-2.03;61.72;102944.00;12258963;19;20089;-82
2022/12/18 01:23:27;;;;;;;11.73;6.32;;;-0.20;56.10;;;-2.11;61.49;102940.34;12261294;19;20034;-82
2022/12/18 01:27:28;;;;;;;17.65;9.73;;;-0.30;56.00;;;-2.04;61.54;102955.09;12262576;19;20014;-83
2022/12/18 01:31:33;;;;;;;15.48;6.85;;;-0.30;56.00;;;-2.10;61.63;102960.00;12263301;19;20396;-82
2022/12/18 01:35:42;;;;;;;13.32;7.13;;;-0.30;56.20;;;-2.11;61.61;102978.72;12266271;19;20021;-82
2022/12/18 01:39:44;;;;;;;15.98;7.70;;;-0.40;55.80;;;-2.24;61.63;102967.22;12262381;19;20006;-82
2022/12/18 01:43:57;;;;;;;14.57;6.60;;;-0.40;55.90;;;-2.17;61.55;102973.41;12262380;19;20354;-82
2022/12/18 01:48:09;;;;;;;17.30;6.85;;;-0.40;55.90;;;-2.20;61.68;102974.19;12260939;19;20018;-83
2022/12/18 01:52:12;;;;;;;16.23;7.82;;;-0.40;56.00;;;-2.64;61.47;102890.81;12263161;19;20063;-82
2022/12/18 01:56:20;;;;;;;18.08;7.97;;;-0.20;56.00;;;-2.32;61.56;102949.06;12261423;19;20006;-83
2022/12/18 02:00:23;;;;;;;18.20;10.18;;;-0.50;55.90;;;-2.18;61.40;102956.31;12260460;19;20007;-82
2022/12/18 02:04:27;;;;;;;16.30;7.97;;;-0.10;56.00;;;-2.34;61.46;102950.69;12270403;19;20027;-83
2022/12/18 02:09:00;;;;;;;16.52;9.25;;;-0.30;55.90;;;-2.39;61.57;102959.03;12273919;19;20007;-83
2022/12/18 02:13:10;;;;;;;17.02;8.60;;;-0.50;55.70;;;-2.35;61.56;102982.22;12275147;19;20018;-83
2022/12/18 02:17:24;;;;;;;18.02;7.40;;;-0.70;55.50;;;-2.41;61.39;102981.97;12265613;19;20014;-83
2022/12/18 02:22:03;;;;;;;14.38;6.22;;;-0.40;55.80;;;-2.60;61.50;102966.81;12273607;19;20018;-83
2022/12/18 02:26:25;;;;;;;13.88;6.65;;;-0.70;55.70;;;-2.50;61.54;102994.47;12270777;19;20021;-83
2022/12/18 02:30:32;;;;;;;18.48;9.27;;;-0.80;55.80;;;-2.57;61.42;102987.38;12271516;19;20034;-83
2022/12/18 02:34:38;;;;;;;17.38;7.78;;;-0.80;55.80;;;-2.63;61.37;102988.03;12269375;19;20011;-83
2022/12/18 02:38:45;;;;;;;16.50;8.27;;;-0.80;55.80;;;-2.60;61.41;102997.50;12268638;19;20007;-83
2022/12/18 02:42:49;;;;;;;14.20;7.25;;;-0.90;55.70;;;-2.63;61.38;103002.50;12266404;19;20011;-83
2022/12/18 02:46:54;;;;;;;17.43;9.67;;;-0.90;55.70;;;-2.78;61.42;102987.47;12264132;19;20023;-83
2022/12/18 02:51:04;;;;;;;18.83;9.85;;;-0.90;55.80;;;-2.82;61.42;102981.38;12267257;19;20648;-83
2022/12/18 02:55:31;;;;;;;17.67;8.57;;;-1.00;55.80;;;-2.80;61.41;103004.47;12265173;19;20050;-83
2022/12/18 03:00:10;;;;;;;19.77;9.32;;;-1.00;55.90;;;-2.82;61.44;102999.28;12274242;19;20018;-83
2022/12/18 03:04:25;;;;;;;13.88;8.15;;;-1.00;55.90;;;-2.89;61.59;102999.84;12276088;19;20043;-83
2022/12/18 03:08:37;;;;;;;16.42;8.82;;;-0.80;56.10;;;-2.76;61.53;103026.75;12273249;19;20034;-83
2022/12/18 03:12:52;;;;;;;20.88;9.98;;;-1.00;56.00;;;-2.82;61.52;103017.16;12278277;19;20007;-83
2022/12/18 03:17:01;;;;;;;21.50;10.70;;;-1.00;56.00;;;-2.77;61.38;103030.13;12276097;19;20023;-82
2022/12/18 03:21:08;;;;;;;16.00;8.30;;;-1.00;55.90;;;-2.92;61.52;103000.63;12275963;19;20018;-84
2022/12/18 03:25:15;;;;;;;17.58;8.13;;;-0.80;56.00;;;-2.82;61.43;103027.41;12288439;19;20041;-83
2022/12/18 03:29:27;;;;;;;20.13;9.30;;;-1.10;55.90;;;-2.84;61.48;103030.72;12282891;19;20397;-83
2022/12/18 03:33:55;;;;;;;21.83;10.40;;;-1.10;55.90;;;-2.89;61.54;103040.75;12286949;19;20006;-83
2022/12/18 03:38:01;;;;;;;21.35;9.27;;;-1.00;55.90;;;-2.92;61.43;103035.53;12280421;19;20014;-83
2022/12/18 03:42:25;;;;;;;20.42;9.70;;;-0.90;55.90;;;-3.26;61.58;102979.75;12281664;19;20006;-83
2022/12/18 03:47:15;;;;;;;17.83;8.00;;;-1.20;55.80;;;-2.98;61.56;103019.97;12279141;19;20014;-83
2022/12/18 03:51:39;;;;;;;13.65;6.93;;;-1.20;55.90;;;-3.15;61.37;102994.66;12277199;19;20373;-83
2022/12/18 03:55:43;;;;;;;15.00;7.55;;;-1.10;55.90;;;-3.13;61.48;102994.72;12277103;19;20078;-83
2022/12/18 03:59:50;;;;;;;16.58;8.50;;;-1.30;55.90;;;-3.10;61.75;103015.28;12273636;19;20018;-83
2022/12/18 04:03:59;;;;;;;14.40;7.80;;;-1.20;55.90;;;-2.98;61.57;103041.28;12275309;19;20018;-83
2022/12/18 04:08:01;;;;;;;16.98;8.75;;;-1.20;55.90;;;-3.07;61.33;103019.63;12276771;19;20007;-82
2022/12/18 04:12:04;;;;;;;18.63;8.63;;;-1.30;55.90;;;-3.43;61.57;102968.84;12272148;19;20038;-83
2022/12/18 04:16:09;;;;;;;18.50;9.63;;;-1.20;56.00;;;-3.17;61.46;103011.59;12275206;19;20019;-83
2022/12/18 04:20:14;;;;;;;15.05;7.53;;;-1.00;56.00;;;-3.21;61.45;103009.75;12273667;19;20006;-83
2022/12/18 04:24:18;;;;;;;13.45;7.38;;;-1.30;55.80;;;-3.20;61.58;103014.03;12271857;19;20069;-82
2022/12/18 04:28:30;;;;;;;13.57;7.60;;;-1.30;55.80;;;-3.10;61.52;103033.16;12269338;19;20348;-82
2022/12/18 04:32:34;;;;;;;15.55;7.55;;;-1.30;55.90;;;-3.23;61.49;103013.06;12272270;19;20109;-82
2022/12/18 04:36:37;;;;;;;12.88;7.43;;;-1.30;55.90;;;-3.15;61.61;103032.97;12269709;19;20428;-83
2022/12/18 04:40:39;;;;;;;14.95;7.25;;;-1.30;55.90;;;-3.08;61.48;103048.53;12270731;19;20420;-82
2022/12/18 04:44:47;;;;;;;15.77;8.02;;;-1.30;55.90;;;-3.12;61.53;103048.44;12266425;19;20107;-82
2022/12/18 04:48:49;;;;;;;22.42;10.20;;;-1.30;55.90;;;-3.15;61.59;103038.09;12266365;19;20018;-83
2022/12/18 04:52:51;;;;;;;16.67;8.60;;;-1.00;56.00;;;-3.17;61.48;103039.72;12268438;19;20591;-83
2022/12/18 04:56:53;;;;;;;18.35;9.25;;;-1.30;55.80;;;-3.12;61.49;103057.78;12269601;19;20026;-82
2022/12/18 05:00:54;;;;;;;16.58;7.57;;;-1.20;55.90;;;-3.18;61.45;103052.44;12268931;19;20045;-83
2022/12/18 05:04:56;;;;;;;15.50;6.90;;;-1.40;55.80;;;-3.18;61.60;103060.09;12263818;19;20014;-82
2022/12/18 05:08:58;;;;;;;11.80;6.72;;;-1.30;55.90;;;-3.31;61.57;103028.09;12261689;19;20019;-82
2022/12/18 05:13:01;;;;;;;17.85;7.30;;;-1.30;56.00;;;-3.07;61.72;103058.84;12267620;19;20034;-82
2022/12/18 05:17:03;;;;;;;16.98;8.02;;;-1.30;56.00;;;-3.29;61.69;103012.81;12263670;19;20018;-83
2022/12/18 05:21:05;;;;;;;15.00;6.90;;;-1.30;56.00;;;-3.01;61.86;103050.53;12264104;19;20236;-82
2022/12/18 05:25:08;;;;;;;16.85;7.15;;;-1.20;56.00;;;-2.94;61.71;103063.59;12264503;19;20022;-82
2022/12/18 05:29:12;;;;;;;15.40;7.85;;;-1.20;56.00;;;-3.05;61.70;103053.75;12260220;19;20008;-82
2022/12/18 05:33:13;;;;;;;14.15;8.07;;;-0.80;56.10;;;-3.08;61.50;103067.28;12263342;19;20027;-83
2022/12/18 05:37:16;;;;;;;15.95;7.38;;;-1.00;55.90;;;-3.06;61.61;103075.03;12261515;19;20051;-82
2022/12/18 05:41:18;;;;;;;15.60;7.95;;;-1.20;55.80;;;-3.33;61.46;103033.13;12264357;19;20011;-83
2022/12/18 05:45:20;;;;;;;19.20;8.80;;;-0.90;55.90;;;-3.45;61.54;103019.88;12265729;19;20019;-82
2022/12/18 05:49:21;;;;;;;18.15;8.35;;;-1.30;55.70;;;-3.30;61.59;103063.03;12265769;19;20051;-82
2022/12/18 05:53:23;;;;;;;21.33;8.93;;;-1.00;55.90;;;-3.21;61.45;103096.63;12263230;19;20003;-82
2022/12/18 05:57:25;;;;;;;18.73;9.90;;;-1.20;55.80;;;-3.13;61.61;103113.13;12259847;19;20050;-83
2022/12/18 06:01:27;;;;;;;14.93;6.68;;;-1.30;55.80;;;-3.18;61.61;103111.22;12262890;19;20026;-83
2022/12/18 06:05:34;;;;;;;19.27;9.55;;;-1.30;55.80;;;-3.18;61.50;103108.66;12263126;19;20010;-83
2022/12/18 06:09:35;;;;;;;16.45;8.15;;;-1.40;55.80;;;-3.54;61.55;103044.16;12263818;19;20473;-83
2022/12/18 06:13:38;;;;;;;14.48;7.45;;;-1.10;56.00;;;-3.23;61.68;103115.25;12260173;19;20010;-82
2022/12/18 06:17:40;;;;;;;15.27;7.63;;;-1.40;55.80;;;-3.27;61.66;103100.59;12262475;19;20107;-83
2022/12/18 06:21:42;;;;;;;13.65;7.78;;;-1.40;55.90;;;-3.14;61.64;103128.38;12255506;19;20500;-83
2022/12/18 06:25:43;;;;;;;20.05;8.50;;;-1.10;56.00;;;-3.21;61.80;103127.28;12261092;19;20366;-83
2022/12/18 06:29:45;;;;;;;14.40;7.45;;;-1.10;56.10;;;-3.10;61.57;103135.38;12259805;19;20006;-83
2022/12/18 06:33:47;;;;;;;14.32;7.60;;;-1.30;56.00;;;-3.07;61.72;103142.31;12260475;19;20346;-83
2022/12/18 06:37:49;;;;;;;20.98;9.93;;;-1.20;56.00;;;-3.37;61.73;103104.47;12261970;19;20054;-83
2022/12/18 06:41:51;;;;;;;24.60;10.05;;;-1.30;56.00;;;-3.44;61.64;103089.72;12263888;19;20019;-84
2022/12/18 06:46:00;;;;;;;21.27;11.02;;;-1.30;56.00;;;-3.18;61.72;103145.28;12268897;19;20030;-83
2022/12/18 06:50:02;;;;;;;24.73;10.80;;;-1.30;56.30;;;-3.19;61.66;103156.31;12257357;19;20015;-83
2022/12/18 06:54:04;;;;;;;19.63;10.48;;;-1.30;56.00;;;-3.17;61.71;103172.56;12260520;19;20082;-82
2022/12/18 06:58:06;;;;;;;15.98;8.52;;;-1.30;55.90;;;-3.21;61.83;103165.59;12256930;19;20030;-82
2022/12/18 07:02:14;;;;;;;15.32;8.65;;;-1.40;56.00;;;-3.23;61.52;103164.66;12257444;19;20535;-84
2022/12/18 07:06:19;;;;;;;18.65;9.88;;;-1.30;56.00;;;-3.15;61.83;103178.63;12254026;19;20019;-83
2022/12/18 07:10:21;;;;;;;21.58;10.90;;;-1.30;56.00;;;-3.24;61.69;103164.59;12255075;19;20031;-83
2022/12/18 07:14:23;;;;;;;19.20;10.02;;;-1.30;56.10;;;-3.24;61.81;103162.94;12253695;19;20018;-82
2022/12/18 07:18:25;;;;;;;18.10;8.88;;;-1.20;56.10;;;-3.15;61.68;103168.41;12251017;19;20057;-83
2022/12/18 07:22:27;;;;;;;16.58;8.20;;;-1.30;56.10;;;-3.06;61.75;103174.69;12253725;19;20042;-82
2022/12/18 07:26:29;;;;;;;20.23;8.32;;;-1.30;56.10;;;-3.51;61.60;103097.91;12249916;19;20459;-83
2022/12/18 07:30:37;;;;;;;18.65;8.05;;;-1.30;56.10;;;-3.05;61.65;103184.09;12258153;19;20082;-83
2022/12/18 07:34:39;;;;;;;23.92;10.68;;;-1.20;56.10;;;-3.13;61.69;103187.25;12260130;19;20015;-83
2022/12/18 07:38:41;;;;;;;21.70;10.45;;;-1.30;56.50;;;-3.17;61.69;103184.47;12255550;19;20015;-83
2022/12/18 07:42:43;;;;;;;19.73;8.60;;;-1.30;56.20;;;-3.07;61.91;103194.28;12255977;19;20042;-82
2022/12/18 07:46:45;;;;;;;18.52;9.40;;;-1.30;56.20;;;-3.48;61.56;103118.47;12259566;19;20014;-82
2022/12/18 07:50:47;;;;;;;15.55;8.02;;;-1.30;56.30;;;-3.05;61.70;103173.88;12264394;19;20349;-81
2022/12/18 07:54:49;;;;;;;20.70;10.18;;;-1.10;56.40;;;-3.11;61.80;103164.28;12269198;19;20022;-81
2022/12/18 07:58:51;;;;;;;26.40;11.88;;;-1.20;56.50;;;-3.01;61.77;103179.19;12263590;19;20074;-81
2022/12/18 08:02:53;;;;;;;28.25;12.27;;;-1.20;56.50;;;-3.06;61.72;103164.47;12262626;19;20010;-81
2022/12/18 08:06:55;;;;;;;28.17;12.43;;;-1.20;56.70;;;-2.95;61.90;103184.53;12262201;19;20018;-83
2022/12/18 08:10:57;;;;;;;26.08;10.45;;;-1.20;56.60;;;-3.01;61.88;103166.41;12264103;19;20007;-81
2022/12/18 08:14:59;;;;;;;25.25;11.48;;;-1.10;56.70;;;-2.99;61.94;103169.03;12262516;19;20025;-81
2022/12/18 08:19:01;;;;;;;21.00;11.02;;;-1.10;56.70;;;-2.95;61.67;103168.34;12258687;19;20009;-81
2022/12/18 08:23:03;;;;;;;21.25;10.05;;;-1.10;56.70;;;-2.86;61.95;103172.94;12257754;19;20760;-81
2022/12/18 08:27:05;;;;;;;20.67;9.48;;;-1.10;56.70;;;-2.79;62.05;103174.94;12261344;19;20114;-81
2022/12/18 08:31:07;;;;;;;23.70;10.85;;;-0.90;56.80;;;-2.75;61.98;103172.56;12264205;19;20091;-81
2022/12/18 08:35:11;;;;;;;26.80;9.90;;;-0.80;56.90;;;-2.68;61.96;103181.34;12260872;19;20029;-81
2022/12/18 08:39:13;;;;;;;24.50;10.98;;;-0.90;56.90;;;-2.63;62.02;103186.63;12256745;19;20019;-81
2022/12/18 08:47:35;;;;;;;22.17;10.40;;;-0.80;56.80;;;-2.72;61.93;103162.44;12256046;19;20018;-81
2022/12/18 08:51:38;;;;;;;30.50;12.57;;;-0.50;57.00;;;-2.54;61.92;103190.44;12261251;19;20078;-82
2022/12/18 08:55:39;;;;;;;25.52;11.38;;;-0.70;57.00;;;-2.53;62.03;103191.31;12255326;19;20472;-82
2022/12/18 08:59:41;;;;;;;26.48;10.68;;;-0.70;56.90;;;-2.55;61.98;103187.81;12278679;19;20018;-82
2022/12/18 09:03:46;;;;;;;24.98;11.68;;;-0.60;57.00;;;-2.44;62.23;103191.66;12259658;19;20029;-82
2022/12/18 09:07:48;;;;;;;18.88;8.98;;;-0.60;57.00;;;-2.41;62.01;103204.53;12259956;19;20078;-82
2022/12/18 09:11:50;;;;;;;22.98;10.20;;;-0.50;57.00;;;-2.33;62.11;103217.63;12258889;19;20044;-84
2022/12/18 09:15:55;;;;;;;24.88;10.25;;;-0.50;57.10;;;-2.34;61.94;103216.78;12253575;19;20038;-82
2022/12/18 09:19:57;;;;;;;24.73;11.02;;;-0.40;57.10;;;-2.38;62.07;103196.13;12252430;19;20488;-81
2022/12/18 09:23:58;;;;;;;23.63;10.40;;;-0.40;57.20;;;-2.19;61.97;103224.16;12253047;19;20034;-81
2022/12/18 09:28:01;;;;;;;27.52;11.25;;;-0.30;57.20;;;-2.31;62.17;103193.84;12252898;19;20691;-82
2022/12/18 09:32:04;;;;;;;21.70;9.63;;;-0.30;57.20;;;-2.11;62.10;103235.53;12260807;19;20018;-82
2022/12/18 09:36:09;;;;;;;17.20;9.15;;;-0.30;57.10;;;-2.11;62.23;103244.91;12261061;19;20050;-82
2022/12/18 09:40:22;;;;;;;20.27;9.20;;;-0.20;57.20;;;-2.09;62.07;103217.69;12250210;19;20358;-84
2022/12/18 09:44:35;;;;;;;21.88;11.77;;;-0.20;57.20;;;-1.99;62.10;103224.91;12251503;19;20015;-84
2022/12/18 09:48:44;;;;;;;18.73;10.27;;;-0.10;57.20;;;-1.96;62.04;103222.47;12252316;19;20010;-84
2022/12/18 09:52:53;;;;;;;21.55;9.32;;;-0.10;57.20;;;-1.97;62.31;103213.03;12258770;19;20018;-83
2022/12/18 09:56:55;;;;;;;20.42;9.65;;;-0.10;57.20;;;-1.91;62.24;103217.50;12258975;19;20045;-83
2022/12/18 10:00:57;;;;;;;26.02;11.35;;;0.10;57.20;;;-1.98;62.13;103188.25;12254254;19;20031;-83
2022/12/18 10:05:37;;;;;;;31.85;12.48;;;-0.10;57.20;;;-1.89;62.14;103201.41;12250239;19;20014;-83
2022/12/18 10:10:19;;;;;;;22.02;10.07;;;0.00;57.30;;;-1.95;61.92;103184.91;12256643;19;20058;-82
2022/12/18 10:14:36;;;;;;;24.45;9.18;;;-0.10;57.20;;;-1.88;62.27;103185.19;12256316;19;20011;-82
2022/12/18 10:18:55;;;;;;;16.50;8.00;;;-0.10;57.20;;;-1.85;62.17;103167.38;12253829;19;20047;-82
2022/12/18 10:23:12;;;;;;;17.42;8.63;;;0.00;57.20;;;-1.84;62.17;103161.44;12254229;19;20480;-83
2022/12/18 10:27:21;;;;;;;21.42;9.60;;;0.30;57.40;;;-1.82;62.05;103164.06;12255158;19;20029;-83
2022/12/18 10:31:25;;;;;;;17.23;9.02;;;0.00;57.30;;;-1.85;62.08;103166.53;12251593;19;20019;-83
2022/12/18 10:35:27;;;;;;;19.92;8.70;;;0.00;57.40;;;-1.77;62.06;103179.59;12258177;19;20022;-83
2022/12/18 10:39:29;;;;;;;21.50;9.60;;;0.00;57.30;;;-1.86;62.25;103162.22;12255703;19;20527;-82
2022/12/18 10:43:34;;;;;;;22.00;9.25;;;0.30;57.40;;;-1.90;62.17;103148.41;12251604;19;20015;-83
2022/12/18 10:47:41;;;;;;;18.90;8.80;;;0.00;57.20;;;-1.85;62.28;103158.84;12251687;19;20018;-82
2022/12/18 10:51:43;;;;;;;18.20;8.43;;;0.00;57.20;;;-1.89;62.19;103145.06;12253741;19;20018;-82
2022/12/18 10:55:47;;;;;;;17.10;7.47;;;0.20;57.30;;;-1.80;62.14;103150.50;12255090;19;20007;-83
2022/12/18 10:59:55;;;;;;;14.57;7.40;;;0.00;57.30;;;-1.81;62.37;103135.06;12170583;19;20480;-83
2022/12/18 11:03:56;;;;;;;19.55;9.07;;;0.00;57.20;;;-1.72;62.23;103134.53;12032282;19;20057;-83
2022/12/18 11:08:00;;;;;;;13.55;6.88;;;0.10;57.30;;;-2.07;62.18;103067.59;12026335;19;20040;-83
2022/12/18 11:12:22;;;;;;;19.00;8.13;;;0.10;57.20;;;-1.69;62.09;103132.06;12035654;19;20364;-83
2022/12/18 11:16:30;;;;;;;16.83;8.38;;;0.10;57.20;;;-1.77;62.20;103121.56;12046413;19;21019;-84
2022/12/18 11:20:36;;;;;;;12.95;7.07;;;0.30;57.30;;;-1.67;62.15;103130.44;12042770;19;20030;-83
2022/12/18 11:24:39;;;;;;;15.48;6.88;;;0.10;57.20;;;-1.80;62.12;103104.41;12034449;19;20026;-83
2022/12/18 11:29:17;;;;;;;15.30;7.63;;;0.10;57.10;;;-1.67;62.07;103136.44;11995940;19;20031;-83
2022/12/18 11:33:31;;;;;;;14.80;7.20;;;0.10;57.20;;;-1.82;62.27;103094.91;11995701;19;20025;-82
2022/12/18 11:37:35;;;;;;;16.87;7.70;;;0.10;57.10;;;-1.83;62.37;103109.41;11995586;19;20467;-83
2022/12/18 11:42:08;;;;;;;16.27;7.88;;;0.40;57.30;;;-1.84;62.18;103107.66;11999642;19;20026;-83
2022/12/18 11:46:24;;;;;;;13.55;8.52;;;0.10;57.10;;;-1.72;62.27;103122.59;11989874;19;20018;-83
2022/12/18 11:50:37;;;;;;;21.23;10.15;;;0.20;57.10;;;-1.71;62.18;103115.78;12007211;19;20100;-83
2022/12/18 11:54:56;;;;;;;23.25;11.65;;;0.40;57.30;;;-1.61;62.21;103125.53;12002262;19;20019;-83
2022/12/18 11:59:46;;;;;;;28.27;12.88;;;0.20;57.20;;;-1.56;62.22;103131.69;12215021;19;20014;-82
2022/12/18 12:04:29;;;;;;;19.35;8.95;;;0.20;57.30;;;-1.51;62.28;103127.59;12252773;19;20045;-82
2022/12/18 12:08:39;;;;;;;16.85;7.82;;;0.20;57.20;;;-1.49;62.22;103136.16;12251884;19;20096;-83
2022/12/18 12:12:57;;;;;;;19.17;10.00;;;0.30;57.30;;;-1.44;62.23;103138.88;12252902;19;20026;-83
2022/12/18 12:17:27;;;;;;;22.88;10.52;;;0.30;57.30;;;-1.44;62.21;103147.44;12252994;19;20014;-81
2022/12/18 12:21:51;;;;;;;15.52;8.15;;;0.30;57.30;;;-1.47;62.25;103139.66;12253359;19;20038;-82
2022/12/18 12:26:56;;;;;;;21.73;11.57;;;0.40;57.40;;;-1.42;62.37;103152.63;12252539;19;20014;-82
2022/12/18 12:31:01;;;;;;;19.85;11.55;;;0.40;57.30;;;-1.39;62.23;103156.16;12249946;19;20022;-82
2022/12/18 12:35:51;;;;;;;24.05;13.27;;;0.40;57.40;;;-1.37;62.26;103154.53;12267355;19;20018;-82
2022/12/18 12:39:54;;;;;;;19.92;10.93;;;0.40;57.30;;;-1.46;62.17;103136.28;12263964;19;20010;-82
2022/12/18 12:44:01;;;;;;;24.90;10.63;;;0.40;57.40;;;-1.33;62.35;103160.63;12267557;19;20018;-84
2022/12/18 12:48:13;;;;;;;25.73;9.63;;;0.40;57.30;;;-1.30;62.36;103167.53;12267337;19;20345;-83
2022/12/18 12:52:35;;;;;;;21.63;9.68;;;0.50;57.30;;;-1.25;62.37;103173.69;12263365;19;20014;-82
2022/12/18 12:57:05;;;;;;;16.58;7.13;;;0.60;57.30;;;-1.23;62.29;103175.47;12257179;19;20010;-82
2022/12/18 13:01:28;;;;;;;14.90;7.85;;;0.60;57.30;;;-1.29;62.39;103153.91;12261203;19;20014;-82
2022/12/18 13:05:54;;;;;;;17.05;8.20;;;0.60;57.20;;;-1.21;62.48;103145.66;12267196;19;20025;-82
2022/12/18 13:10:37;;;;;;;11.95;7.55;;;0.70;57.20;;;-1.21;62.34;103117.47;12266155;19;20017;-82
2022/12/18 13:14:41;;;;;;;16.05;7.97;;;0.70;57.30;;;-1.19;62.38;103099.53;12259587;19;20017;-82
2022/12/18 13:18:57;;;;;;;17.00;8.65;;;1.00;57.30;;;-1.12;62.39;103110.03;12259299;19;20519;-81
2022/12/18 13:22:59;;;;;;;16.02;10.13;;;0.60;57.10;;;-1.07;62.43;103129.84;12256037;19;20017;-82
2022/12/18 13:27:59;;;;;;;16.08;8.55;;;0.70;57.10;;;-1.05;62.32;103134.22;12260586;19;20044;-82
2022/12/18 13:32:01;;;;;;;22.67;10.73;;;0.80;57.20;;;-1.07;62.21;103135.84;12262872;19;20011;-82
2022/12/18 13:36:22;;;;;;;21.20;11.07;;;0.80;57.20;;;-1.02;62.22;103148.81;12262931;19;20029;-81
2022/12/18 13:40:39;;;;;;;15.50;8.93;;;0.80;57.30;;;-1.04;62.37;103137.63;12264825;19;20026;-82
2022/12/18 13:44:41;;;;;;;20.05;9.73;;;0.80;57.30;;;-1.16;62.19;103120.16;12256533;19;20086;-82
2022/12/18 13:49:12;;;;;;;20.75;9.95;;;1.00;57.30;;;-1.08;62.15;103139.25;12258478;19;20442;-82
2022/12/18 13:53:43;;;;;;;16.85;9.65;;;0.70;57.20;;;-1.17;62.13;103129.53;12255987;19;20400;-82
2022/12/18 13:57:44;;;;;;;20.05;10.52;;;0.70;57.20;;;-1.18;62.18;103109.00;12252726;19;20010;-83
2022/12/18 14:01:54;;;;;;;21.25;10.85;;;0.70;57.20;;;-1.23;62.14;103093.47;12255668;19;20024;-84
2022/12/18 14:06:06;;;;;;;16.85;9.45;;;0.60;57.20;;;-1.18;62.30;103099.59;12257755;19;20146;-82
2022/12/18 14:10:15;;;;;;;16.70;8.60;;;0.60;57.30;;;-1.21;62.33;103080.72;12251003;19;20089;-82
2022/12/18 14:14:18;;;;;;;18.15;8.45;;;0.60;57.20;;;-1.17;62.31;103103.03;12256525;19;20357;-82
2022/12/18 14:18:38;;;;;;;15.98;7.88;;;0.60;57.20;;;-1.16;62.40;103099.63;12256266;19;20018;-83
2022/12/18 14:22:46;;;;;;;14.23;8.05;;;0.60;57.20;;;-1.30;62.35;103070.16;12256647;19;20348;-83
2022/12/18 14:26:49;;;;;;;13.80;8.77;;;0.80;57.30;;;-1.09;62.41;103105.84;12255652;19;20007;-82
2022/12/18 14:30:51;;;;;;;24.27;13.60;;;0.60;57.30;;;-1.12;62.27;103097.22;12254310;19;20010;-84
2022/12/18 14:34:55;;;;;;;13.65;7.85;;;0.70;57.40;;;-1.13;62.20;103081.81;12249210;19;20007;-83
2022/12/18 14:38:59;;;;;;;13.50;8.48;;;0.90;57.40;;;-1.08;62.22;103071.69;12250337;19;20003;-82
2022/12/18 14:43:02;;;;;;;13.85;7.13;;;0.60;57.20;;;-1.15;62.44;103058.69;12251212;19;20456;-82
2022/12/18 14:47:04;;;;;;;11.70;6.70;;;0.60;57.20;;;-1.06;62.38;103059.78;12257898;19;20015;-81
2022/12/18 14:51:19;;;;;;;12.68;8.10;;;0.60;57.20;;;-1.49;62.17;102969.63;12266000;19;20319;-82
2022/12/18 14:55:21;;;;;;;14.32;7.97;;;0.70;57.20;;;-1.03;62.39;103047.91;12270071;19;20038;-81
2022/12/18 14:59:25;;;;;;;12.82;7.18;;;0.70;57.30;;;-1.08;62.20;103036.69;12275831;19;20484;-81
2022/12/18 15:03:27;;;;;;;17.52;8.95;;;0.70;57.20;;;-1.35;62.25;102990.53;12273564;19;20018;-81
2022/12/18 15:07:47;;;;;;;17.13;9.15;;;0.70;57.20;;;-1.09;62.24;103040.06;12265111;19;20047;-82
2022/12/18 15:11:50;;;;;;;11.05;7.20;;;0.70;57.20;;;-1.12;62.29;103033.13;12269721;19;20015;-82
2022/12/18 15:15:55;;;;;;;17.75;9.48;;;0.80;57.10;;;-1.18;62.28;103044.91;12270310;19;20048;-81
2022/12/18 15:20:09;;;;;;;15.40;8.40;;;0.60;57.10;;;-1.44;62.18;103032.13;12270956;19;20017;-81
2022/12/18 15:24:29;;;;;;;17.55;8.95;;;0.60;57.00;;;-1.25;62.20;103078.84;12268198;19;20011;-81
2022/12/18 15:28:50;;;;;;;16.23;8.98;;;0.60;57.00;;;-1.25;62.29;103089.09;12262167;19;20098;-81
2022/12/18 15:33:15;;;;;;;15.80;9.25;;;0.80;57.10;;;-1.43;62.37;103054.41;12265987;19;20350;-81
2022/12/18 15:37:17;;;;;;;18.60;9.50;;;0.70;57.20;;;-1.40;62.15;103053.63;12256945;19;20042;-82
2022/12/18 15:41:21;;;;;;;17.58;10.27;;;0.70;57.20;;;-1.29;62.26;103071.91;12272185;19;20035;-82
2022/12/18 15:45:23;;;;;;;14.25;7.90;;;0.50;57.10;;;-1.24;62.37;103078.03;12265625;19;20015;-82
2022/12/18 15:49:25;;;;;;;18.40;9.10;;;0.50;57.10;;;-1.33;62.31;103061.53;12267823;19;20042;-82
2022/12/18 15:53:33;;;;;;;12.10;8.23;;;0.50;57.20;;;-1.26;62.34;103070.31;12270230;19;20014;-81
2022/12/18 15:57:34;;;;;;;15.25;9.27;;;0.50;57.10;;;-1.25;62.42;103063.47;12263924;19;20036;-81
2022/12/18 16:01:36;;;;;;;14.35;8.20;;;0.50;57.10;;;-1.21;62.19;103070.47;12268958;19;20014;-81
2022/12/18 16:05:38;;;;;;;20.08;9.68;;;0.50;57.10;;;-1.21;62.26;103067.91;12267004;19;20046;-82
2022/12/18 16:09:41;;;;;;;12.90;7.10;;;0.70;57.20;;;-1.20;62.23;103065.34;12266872;19;20022;-81
2022/12/18 16:13:43;;;;;;;17.95;9.18;;;0.50;57.10;;;-1.21;62.35;103042.25;12260421;19;20019;-81
2022/12/18 16:17:48;;;;;;;18.73;10.52;;;0.70;57.20;;;-1.33;62.30;103035.03;12259638;19;20046;-81
2022/12/18 16:21:52;;;;;;;16.63;9.00;;;0.60;57.20;;;-1.35;62.18;103026.44;12253645;19;20018;-82
2022/12/18 16:25:54;;;;;;;20.23;9.43;;;0.60;57.10;;;-1.36;62.12;103022.13;12256168;19;20015;-82
2022/12/18 16:29:55;;;;;;;18.40;9.75;;;0.80;57.10;;;-1.31;62.15;103025.72;12264484;19;20307;-81
2022/12/18 16:34:22;;;;;;;17.17;8.98;;;0.80;57.10;;;-1.38;62.17;103021.22;12265087;19;20010;-81
2022/12/18 16:38:24;;;;;;;14.38;8.30;;;0.50;56.90;;;-1.38;62.32;103013.53;12259373;19;20025;-81
2022/12/18 16:42:26;;;;;;;17.17;9.13;;;0.50;56.90;;;-1.29;62.39;103028.34;12261203;19;20038;-81
2022/12/18 16:46:29;;;;;;;15.88;7.90;;;0.50;57.00;;;-1.31;62.40;103028.28;12264516;19;20014;-82
2022/12/18 16:50:31;;;;;;;14.20;8.15;;;0.40;56.90;;;-1.30;62.40;103030.00;12261728;19;20018;-82
2022/12/18 16:54:33;;;;;;;15.45;9.32;;;0.50;56.90;;;-1.43;62.24;102992.91;12262527;19;20006;-82
2022/12/18 16:58:35;;;;;;;13.68;8.40;;;0.40;56.90;;;-1.39;62.19;102994.72;12258836;19;20059;-82